sensor_id;sensor_type;location;lat;lon;timestamp;P1;durP1;ratioP1;P2;durP2;ratioP2
39490;SDS011;25175;50.140;18.990;2022-08-21T00:01:46;28.90;;;14.35;;
39490;SDS011;25175;50.140;18.990;2022-08-21T00:04:49;27.77;;;14.95;;
39490;SDS011;25175;50.140;18.990;2022-08-21T00:07:53;27.20;;;14.13;;
39490;SDS011;25175;50.140;18.990;2022-08-21T00:10:56;26.05;;;14.15;;
39490;SDS011;25175;50.140;18.990;2022-08-21T00:13:59;23.35;;;13.88;;
39490;SDS011;25175;50.140;18.990;2022-08-21T00:17:01;25.83;;;13.70;;
39490;SDS011;25175;50.140;18.990;2022-08-21T00:20:04;25.52;;;14.25;;
39490;SDS011;25175;50.140;18.990;2022-08-21T00:23:09;27.40;;;13.88;;
39490;SDS011;25175;50.140;18.990;2022-08-21T00:26:12;27.00;;;14.85;;
39490;SDS011;25175;50.140;18.990;2022-08-21T00:29:14;23.40;;;14.60;;
39490;SDS011;25175;50.140;18.990;2022-08-21T00:32:19;26.83;;;14.38;;
39490;SDS011;25175;50.140;18.990;2022-08-21T00:35:23;29.48;;;15.05;;
39490;SDS011;25175;50.140;18.990;2022-08-21T00:38:31;31.67;;;14.55;;
39490;SDS011;25175;50.140;18.990;2022-08-21T00:41:34;26.90;;;14.63;;
39490;SDS011;25175;50.140;18.990;2022-08-21T00:44:37;29.73;;;16.13;;
39490;SDS011;25175;50.140;18.990;2022-08-21T00:47:39;27.75;;;15.27;;
39490;SDS011;25175;50.140;18.990;2022-08-21T00:50:43;31.38;;;16.10;;
39490;SDS011;25175;50.140;18.990;2022-08-21T00:53:49;25.25;;;15.27;;
39490;SDS011;25175;50.140;18.990;2022-08-21T00:56:57;26.95;;;15.27;;
39490;SDS011;25175;50.140;18.990;2022-08-21T01:00:04;30.10;;;15.70;;
39490;SDS011;25175;50.140;18.990;2022-08-21T01:03:12;28.63;;;15.20;;
39490;SDS011;25175;50.140;18.990;2022-08-21T01:06:16;27.92;;;15.20;;
39490;SDS011;25175;50.140;18.990;2022-08-21T01:09:19;25.15;;;14.82;;
39490;SDS011;25175;50.140;18.990;2022-08-21T01:12:22;30.58;;;15.38;;
39490;SDS011;25175;50.140;18.990;2022-08-21T01:15:26;27.55;;;15.50;;
39490;SDS011;25175;50.140;18.990;2022-08-21T01:21:35;26.65;;;15.32;;
39490;SDS011;25175;50.140;18.990;2022-08-21T01:24:37;29.23;;;15.90;;
39490;SDS011;25175;50.140;18.990;2022-08-21T01:27:39;27.80;;;14.77;;
39490;SDS011;25175;50.140;18.990;2022-08-21T01:30:42;28.67;;;14.63;;
39490;SDS011;25175;50.140;18.990;2022-08-21T01:33:45;25.98;;;13.73;;
39490;SDS011;25175;50.140;18.990;2022-08-21T01:36:48;27.10;;;13.63;;
39490;SDS011;25175;50.140;18.990;2022-08-21T01:39:51;24.70;;;13.98;;
39490;SDS011;25175;50.140;18.990;2022-08-21T01:42:53;29.92;;;14.43;;
39490;SDS011;25175;50.140;18.990;2022-08-21T01:45:56;27.98;;;15.48;;
39490;SDS011;25175;50.140;18.990;2022-08-21T01:48:58;31.73;;;15.07;;
39490;SDS011;25175;50.140;18.990;2022-08-21T01:52:02;30.75;;;15.38;;
39490;SDS011;25175;50.140;18.990;2022-08-21T01:55:06;28.55;;;15.77;;
39490;SDS011;25175;50.140;18.990;2022-08-21T01:58:09;27.33;;;14.82;;
39490;SDS011;25175;50.140;18.990;2022-08-21T02:01:11;27.20;;;14.48;;
39490;SDS011;25175;50.140;18.990;2022-08-21T02:04:14;34.42;;;15.55;;
39490;SDS011;25175;50.140;18.990;2022-08-21T02:07:18;29.33;;;15.20;;
39490;SDS011;25175;50.140;18.990;2022-08-21T02:10:21;22.88;;;14.38;;
39490;SDS011;25175;50.140;18.990;2022-08-21T02:13:28;25.67;;;13.82;;
39490;SDS011;25175;50.140;18.990;2022-08-21T02:16:30;22.80;;;13.45;;
39490;SDS011;25175;50.140;18.990;2022-08-21T02:19:33;27.75;;;14.10;;
39490;SDS011;25175;50.140;18.990;2022-08-21T02:22:37;25.05;;;13.65;;
39490;SDS011;25175;50.140;18.990;2022-08-21T02:25:39;23.05;;;14.02;;
39490;SDS011;25175;50.140;18.990;2022-08-21T02:28:42;27.15;;;13.77;;
39490;SDS011;25175;50.140;18.990;2022-08-21T02:31:44;24.48;;;13.88;;
39490;SDS011;25175;50.140;18.990;2022-08-21T02:34:47;27.30;;;14.77;;
39490;SDS011;25175;50.140;18.990;2022-08-21T02:37:51;26.85;;;15.43;;
39490;SDS011;25175;50.140;18.990;2022-08-21T02:40:57;25.55;;;14.75;;
39490;SDS011;25175;50.140;18.990;2022-08-21T02:43:59;28.60;;;14.90;;
39490;SDS011;25175;50.140;18.990;2022-08-21T02:47:01;26.80;;;14.77;;
39490;SDS011;25175;50.140;18.990;2022-08-21T02:50:04;30.25;;;14.98;;
39490;SDS011;25175;50.140;18.990;2022-08-21T02:53:08;28.38;;;15.23;;
39490;SDS011;25175;50.140;18.990;2022-08-21T02:59:16;25.67;;;13.98;;
39490;SDS011;25175;50.140;18.990;2022-08-21T03:02:18;25.80;;;13.55;;
39490;SDS011;25175;50.140;18.990;2022-08-21T03:05:22;34.75;;;15.27;;
39490;SDS011;25175;50.140;18.990;2022-08-21T03:08:27;24.27;;;13.80;;
39490;SDS011;25175;50.140;18.990;2022-08-21T03:11:29;32.40;;;14.75;;
39490;SDS011;25175;50.140;18.990;2022-08-21T03:14:31;26.38;;;14.50;;
39490;SDS011;25175;50.140;18.990;2022-08-21T03:17:34;29.70;;;14.43;;
39490;SDS011;25175;50.140;18.990;2022-08-21T03:20:36;26.52;;;13.75;;
39490;SDS011;25175;50.140;18.990;2022-08-21T03:23:42;24.88;;;14.13;;
39490;SDS011;25175;50.140;18.990;2022-08-21T03:26:44;25.40;;;14.43;;
39490;SDS011;25175;50.140;18.990;2022-08-21T03:29:46;28.10;;;15.35;;
39490;SDS011;25175;50.140;18.990;2022-08-21T03:32:48;24.02;;;13.52;;
39490;SDS011;25175;50.140;18.990;2022-08-21T03:35:54;23.05;;;14.07;;
39490;SDS011;25175;50.140;18.990;2022-08-21T03:39:00;21.58;;;12.73;;
39490;SDS011;25175;50.140;18.990;2022-08-21T03:42:03;24.08;;;13.45;;
39490;SDS011;25175;50.140;18.990;2022-08-21T03:45:07;23.63;;;14.00;;
39490;SDS011;25175;50.140;18.990;2022-08-21T03:48:10;31.38;;;14.07;;
39490;SDS011;25175;50.140;18.990;2022-08-21T03:51:12;24.23;;;13.48;;
39490;SDS011;25175;50.140;18.990;2022-08-21T03:54:16;23.83;;;13.52;;
39490;SDS011;25175;50.140;18.990;2022-08-21T03:57:18;25.23;;;14.27;;
39490;SDS011;25175;50.140;18.990;2022-08-21T04:00:22;28.60;;;13.50;;
39490;SDS011;25175;50.140;18.990;2022-08-21T04:03:25;22.02;;;13.25;;
39490;SDS011;25175;50.140;18.990;2022-08-21T04:06:28;24.10;;;14.10;;
39490;SDS011;25175;50.140;18.990;2022-08-21T04:09:32;26.27;;;13.98;;
39490;SDS011;25175;50.140;18.990;2022-08-21T04:12:34;27.40;;;14.73;;
39490;SDS011;25175;50.140;18.990;2022-08-21T04:15:36;28.60;;;16.23;;
39490;SDS011;25175;50.140;18.990;2022-08-21T04:18:38;27.13;;;15.55;;
39490;SDS011;25175;50.140;18.990;2022-08-21T04:21:40;31.52;;;15.65;;
39490;SDS011;25175;50.140;18.990;2022-08-21T04:24:44;31.73;;;16.63;;
39490;SDS011;25175;50.140;18.990;2022-08-21T04:27:47;29.55;;;15.80;;
39490;SDS011;25175;50.140;18.990;2022-08-21T04:30:49;27.95;;;15.73;;
39490;SDS011;25175;50.140;18.990;2022-08-21T04:33:52;29.88;;;15.65;;
39490;SDS011;25175;50.140;18.990;2022-08-21T04:36:54;27.17;;;14.75;;
39490;SDS011;25175;50.140;18.990;2022-08-21T04:39:58;24.42;;;14.35;;
39490;SDS011;25175;50.140;18.990;2022-08-21T04:43:01;29.60;;;15.13;;
39490;SDS011;25175;50.140;18.990;2022-08-21T04:46:05;32.53;;;15.52;;
39490;SDS011;25175;50.140;18.990;2022-08-21T04:49:07;26.75;;;16.08;;
39490;SDS011;25175;50.140;18.990;2022-08-21T04:52:09;30.67;;;16.20;;
39490;SDS011;25175;50.140;18.990;2022-08-21T04:55:14;28.55;;;15.50;;
39490;SDS011;25175;50.140;18.990;2022-08-21T04:58:18;28.27;;;16.45;;
39490;SDS011;25175;50.140;18.990;2022-08-21T05:01:24;31.45;;;15.02;;
39490;SDS011;25175;50.140;18.990;2022-08-21T05:04:29;25.45;;;15.65;;
39490;SDS011;25175;50.140;18.990;2022-08-21T05:07:34;26.05;;;15.18;;
39490;SDS011;25175;50.140;18.990;2022-08-21T05:10:39;27.02;;;15.70;;
39490;SDS011;25175;50.140;18.990;2022-08-21T05:13:42;27.85;;;14.95;;
39490;SDS011;25175;50.140;18.990;2022-08-21T05:16:45;31.33;;;16.00;;
39490;SDS011;25175;50.140;18.990;2022-08-21T05:19:47;27.38;;;15.68;;
39490;SDS011;25175;50.140;18.990;2022-08-21T05:22:49;27.90;;;15.32;;
39490;SDS011;25175;50.140;18.990;2022-08-21T05:25:53;30.15;;;14.38;;
39490;SDS011;25175;50.140;18.990;2022-08-21T05:28:56;23.05;;;14.10;;
39490;SDS011;25175;50.140;18.990;2022-08-21T05:31:58;25.13;;;13.80;;
39490;SDS011;25175;50.140;18.990;2022-08-21T05:35:01;25.42;;;14.25;;
39490;SDS011;25175;50.140;18.990;2022-08-21T05:38:05;26.83;;;14.60;;
39490;SDS011;25175;50.140;18.990;2022-08-21T05:41:08;25.60;;;14.60;;
39490;SDS011;25175;50.140;18.990;2022-08-21T05:44:10;26.48;;;15.00;;
39490;SDS011;25175;50.140;18.990;2022-08-21T05:47:13;24.08;;;14.23;;
39490;SDS011;25175;50.140;18.990;2022-08-21T05:50:15;27.48;;;14.65;;
39490;SDS011;25175;50.140;18.990;2022-08-21T05:53:21;30.15;;;15.27;;
39490;SDS011;25175;50.140;18.990;2022-08-21T05:56:26;32.72;;;15.73;;
39490;SDS011;25175;50.140;18.990;2022-08-21T05:59:28;26.98;;;15.35;;
39490;SDS011;25175;50.140;18.990;2022-08-21T06:02:31;31.17;;;15.85;;
39490;SDS011;25175;50.140;18.990;2022-08-21T06:05:33;32.50;;;16.13;;
39490;SDS011;25175;50.140;18.990;2022-08-21T06:08:35;29.20;;;16.17;;
39490;SDS011;25175;50.140;18.990;2022-08-21T06:11:39;35.80;;;16.60;;
39490;SDS011;25175;50.140;18.990;2022-08-21T06:14:41;40.70;;;17.77;;
39490;SDS011;25175;50.140;18.990;2022-08-21T06:17:44;48.60;;;18.40;;
39490;SDS011;25175;50.140;18.990;2022-08-21T06:20:46;38.83;;;18.38;;
39490;SDS011;25175;50.140;18.990;2022-08-21T06:23:48;36.00;;;18.10;;
39490;SDS011;25175;50.140;18.990;2022-08-21T06:26:52;21.52;;;12.50;;
39490;SDS011;25175;50.140;18.990;2022-08-21T06:29:54;13.18;;;6.45;;
39490;SDS011;25175;50.140;18.990;2022-08-21T06:32:57;7.22;;;4.60;;
39490;SDS011;25175;50.140;18.990;2022-08-21T06:36:00;8.52;;;3.53;;
39490;SDS011;25175;50.140;18.990;2022-08-21T06:39:02;4.50;;;2.20;;
39490;SDS011;25175;50.140;18.990;2022-08-21T06:42:06;5.20;;;2.83;;
39490;SDS011;25175;50.140;18.990;2022-08-21T06:45:15;5.35;;;2.65;;
39490;SDS011;25175;50.140;18.990;2022-08-21T06:48:18;8.95;;;3.00;;
39490;SDS011;25175;50.140;18.990;2022-08-21T06:51:20;6.03;;;2.40;;
39490;SDS011;25175;50.140;18.990;2022-08-21T06:54:23;5.55;;;2.40;;
39490;SDS011;25175;50.140;18.990;2022-08-21T06:57:27;4.18;;;2.45;;
39490;SDS011;25175;50.140;18.990;2022-08-21T07:00:29;8.13;;;2.40;;
39490;SDS011;25175;50.140;18.990;2022-08-21T07:03:32;5.25;;;2.67;;
39490;SDS011;25175;50.140;18.990;2022-08-21T07:06:36;3.97;;;2.35;;
39490;SDS011;25175;50.140;18.990;2022-08-21T07:09:39;4.65;;;2.15;;
39490;SDS011;25175;50.140;18.990;2022-08-21T07:12:42;5.15;;;1.90;;
39490;SDS011;25175;50.140;18.990;2022-08-21T07:15:44;4.15;;;1.88;;
39490;SDS011;25175;50.140;18.990;2022-08-21T07:18:46;4.22;;;1.63;;
39490;SDS011;25175;50.140;18.990;2022-08-21T07:21:49;6.47;;;1.75;;
39490;SDS011;25175;50.140;18.990;2022-08-21T07:24:51;3.15;;;1.70;;
39490;SDS011;25175;50.140;18.990;2022-08-21T07:27:55;5.55;;;1.55;;
39490;SDS011;25175;50.140;18.990;2022-08-21T07:30:58;3.10;;;1.38;;
39490;SDS011;25175;50.140;18.990;2022-08-21T07:34:01;2.28;;;1.10;;
39490;SDS011;25175;50.140;18.990;2022-08-21T07:37:03;3.15;;;1.20;;
39490;SDS011;25175;50.140;18.990;2022-08-21T07:40:06;2.35;;;1.02;;
39490;SDS011;25175;50.140;18.990;2022-08-21T07:43:11;6.50;;;1.50;;
39490;SDS011;25175;50.140;18.990;2022-08-21T07:46:13;4.22;;;1.05;;
39490;SDS011;25175;50.140;18.990;2022-08-21T07:49:16;1.67;;;0.88;;
39490;SDS011;25175;50.140;18.990;2022-08-21T07:52:18;4.80;;;1.50;;
39490;SDS011;25175;50.140;18.990;2022-08-21T07:55:21;3.78;;;1.30;;
39490;SDS011;25175;50.140;18.990;2022-08-21T07:58:25;4.05;;;1.27;;
39490;SDS011;25175;50.140;18.990;2022-08-21T08:01:27;7.45;;;1.30;;
39490;SDS011;25175;50.140;18.990;2022-08-21T08:04:30;3.35;;;1.30;;
39490;SDS011;25175;50.140;18.990;2022-08-21T08:07:32;3.42;;;1.20;;
39490;SDS011;25175;50.140;18.990;2022-08-21T08:10:35;3.28;;;1.20;;
39490;SDS011;25175;50.140;18.990;2022-08-21T08:13:40;2.95;;;1.00;;
39490;SDS011;25175;50.140;18.990;2022-08-21T08:16:43;3.83;;;0.50;;
39490;SDS011;25175;50.140;18.990;2022-08-21T08:19:45;2.45;;;0.65;;
39490;SDS011;25175;50.140;18.990;2022-08-21T08:22:49;1.05;;;0.55;;
39490;SDS011;25175;50.140;18.990;2022-08-21T08:25:51;1.75;;;0.50;;
39490;SDS011;25175;50.140;18.990;2022-08-21T08:28:55;3.53;;;0.50;;
39490;SDS011;25175;50.140;18.990;2022-08-21T08:31:57;3.83;;;0.70;;
39490;SDS011;25175;50.140;18.990;2022-08-21T08:34:59;3.35;;;1.15;;
39490;SDS011;25175;50.140;18.990;2022-08-21T08:38:02;1.83;;;0.80;;
39490;SDS011;25175;50.140;18.990;2022-08-21T08:41:06;1.63;;;0.80;;
39490;SDS011;25175;50.140;18.990;2022-08-21T08:44:15;2.38;;;1.00;;
39490;SDS011;25175;50.140;18.990;2022-08-21T08:47:17;2.88;;;0.80;;
39490;SDS011;25175;50.140;18.990;2022-08-21T08:50:21;4.18;;;0.93;;
39490;SDS011;25175;50.140;18.990;2022-08-21T08:53:30;4.20;;;0.88;;
39490;SDS011;25175;50.140;18.990;2022-08-21T08:56:35;1.85;;;0.60;;
39490;SDS011;25175;50.140;18.990;2022-08-21T08:59:40;2.53;;;0.75;;
39490;SDS011;25175;50.140;18.990;2022-08-21T09:02:45;2.03;;;0.80;;
39490;SDS011;25175;50.140;18.990;2022-08-21T09:05:49;3.33;;;1.20;;
39490;SDS011;25175;50.140;18.990;2022-08-21T09:09:01;3.50;;;0.90;;
39490;SDS011;25175;50.140;18.990;2022-08-21T09:12:15;2.45;;;0.80;;
39490;SDS011;25175;50.140;18.990;2022-08-21T09:15:23;2.75;;;1.20;;
39490;SDS011;25175;50.140;18.990;2022-08-21T09:18:33;2.10;;;0.77;;
39490;SDS011;25175;50.140;18.990;2022-08-21T09:21:47;2.27;;;0.90;;
39490;SDS011;25175;50.140;18.990;2022-08-21T09:24:57;3.08;;;1.10;;
39490;SDS011;25175;50.140;18.990;2022-08-21T09:28:08;2.67;;;0.90;;
39490;SDS011;25175;50.140;18.990;2022-08-21T09:31:16;2.45;;;1.02;;
39490;SDS011;25175;50.140;18.990;2022-08-21T09:34:24;3.40;;;1.15;;
39490;SDS011;25175;50.140;18.990;2022-08-21T09:37:29;1.95;;;1.10;;
39490;SDS011;25175;50.140;18.990;2022-08-21T09:40:36;2.28;;;1.15;;
39490;SDS011;25175;50.140;18.990;2022-08-21T09:43:39;2.75;;;1.25;;
39490;SDS011;25175;50.140;18.990;2022-08-21T09:46:49;3.45;;;1.30;;
39490;SDS011;25175;50.140;18.990;2022-08-21T09:49:52;3.08;;;1.50;;
39490;SDS011;25175;50.140;18.990;2022-08-21T09:52:55;1.92;;;1.15;;
39490;SDS011;25175;50.140;18.990;2022-08-21T09:56:00;3.00;;;1.33;;
39490;SDS011;25175;50.140;18.990;2022-08-21T09:59:31;3.42;;;1.35;;
39490;SDS011;25175;50.140;18.990;2022-08-21T10:02:36;2.70;;;1.20;;
39490;SDS011;25175;50.140;18.990;2022-08-21T10:05:39;3.00;;;1.52;;
39490;SDS011;25175;50.140;18.990;2022-08-21T10:08:41;4.18;;;1.30;;
39490;SDS011;25175;50.140;18.990;2022-08-21T10:11:45;2.53;;;0.90;;
39490;SDS011;25175;50.140;18.990;2022-08-21T10:14:55;1.65;;;1.00;;
39490;SDS011;25175;50.140;18.990;2022-08-21T10:18:06;3.35;;;1.45;;
39490;SDS011;25175;50.140;18.990;2022-08-21T10:21:17;3.63;;;1.30;;
39490;SDS011;25175;50.140;18.990;2022-08-21T10:24:25;3.47;;;1.30;;
39490;SDS011;25175;50.140;18.990;2022-08-21T10:27:36;3.58;;;1.60;;
39490;SDS011;25175;50.140;18.990;2022-08-21T10:30:46;2.75;;;1.30;;
39490;SDS011;25175;50.140;18.990;2022-08-21T10:33:57;3.10;;;1.33;;
39490;SDS011;25175;50.140;18.990;2022-08-21T10:37:10;3.90;;;1.70;;
39490;SDS011;25175;50.140;18.990;2022-08-21T10:40:34;4.45;;;1.95;;
39490;SDS011;25175;50.140;18.990;2022-08-21T10:43:43;3.40;;;2.05;;
39490;SDS011;25175;50.140;18.990;2022-08-21T10:46:54;9.00;;;2.60;;
39490;SDS011;25175;50.140;18.990;2022-08-21T10:50:07;5.07;;;2.92;;
39490;SDS011;25175;50.140;18.990;2022-08-21T10:53:26;5.95;;;3.80;;
39490;SDS011;25175;50.140;18.990;2022-08-21T10:56:38;8.27;;;3.67;;
39490;SDS011;25175;50.140;18.990;2022-08-21T10:59:44;6.10;;;3.22;;
39490;SDS011;25175;50.140;18.990;2022-08-21T11:02:52;6.05;;;3.30;;
39490;SDS011;25175;50.140;18.990;2022-08-21T11:06:02;6.07;;;3.88;;
39490;SDS011;25175;50.140;18.990;2022-08-21T11:09:11;6.13;;;3.70;;
39490;SDS011;25175;50.140;18.990;2022-08-21T11:12:17;5.28;;;3.83;;
39490;SDS011;25175;50.140;18.990;2022-08-21T11:15:33;5.28;;;3.55;;
39490;SDS011;25175;50.140;18.990;2022-08-21T11:18:41;6.97;;;3.33;;
39490;SDS011;25175;50.140;18.990;2022-08-21T11:21:51;6.32;;;3.60;;
39490;SDS011;25175;50.140;18.990;2022-08-21T11:25:03;4.85;;;3.28;;
39490;SDS011;25175;50.140;18.990;2022-08-21T11:28:14;5.00;;;3.17;;
39490;SDS011;25175;50.140;18.990;2022-08-21T11:31:27;6.00;;;3.20;;
39490;SDS011;25175;50.140;18.990;2022-08-21T11:34:43;5.82;;;3.97;;
39490;SDS011;25175;50.140;18.990;2022-08-21T11:38:01;5.80;;;3.90;;
39490;SDS011;25175;50.140;18.990;2022-08-21T11:41:21;5.85;;;4.43;;
39490;SDS011;25175;50.140;18.990;2022-08-21T11:44:32;4.47;;;3.28;;
39490;SDS011;25175;50.140;18.990;2022-08-21T11:47:48;4.68;;;3.22;;
39490;SDS011;25175;50.140;18.990;2022-08-21T11:50:56;5.88;;;3.05;;
39490;SDS011;25175;50.140;18.990;2022-08-21T11:54:03;8.27;;;2.92;;
39490;SDS011;25175;50.140;18.990;2022-08-21T11:57:14;7.00;;;3.58;;
39490;SDS011;25175;50.140;18.990;2022-08-21T12:00:19;5.68;;;3.33;;
39490;SDS011;25175;50.140;18.990;2022-08-21T12:03:28;9.07;;;2.92;;
39490;SDS011;25175;50.140;18.990;2022-08-21T12:06:33;3.90;;;2.83;;
39490;SDS011;25175;50.140;18.990;2022-08-21T12:09:38;6.18;;;3.33;;
39490;SDS011;25175;50.140;18.990;2022-08-21T12:12:42;5.90;;;2.53;;
39490;SDS011;25175;50.140;18.990;2022-08-21T12:15:45;6.85;;;2.70;;
39490;SDS011;25175;50.140;18.990;2022-08-21T12:18:47;4.03;;;2.20;;
39490;SDS011;25175;50.140;18.990;2022-08-21T12:21:51;6.70;;;3.47;;
39490;SDS011;25175;50.140;18.990;2022-08-21T12:25:03;2.33;;;1.30;;
39490;SDS011;25175;50.140;18.990;2022-08-21T12:28:09;2.45;;;1.40;;
39490;SDS011;25175;50.140;18.990;2022-08-21T12:31:17;3.05;;;1.40;;
39490;SDS011;25175;50.140;18.990;2022-08-21T12:34:22;2.33;;;1.48;;
39490;SDS011;25175;50.140;18.990;2022-08-21T12:37:30;2.33;;;1.35;;
39490;SDS011;25175;50.140;18.990;2022-08-21T12:40:41;1.27;;;1.13;;
39490;SDS011;25175;50.140;18.990;2022-08-21T12:43:50;2.00;;;1.55;;
39490;SDS011;25175;50.140;18.990;2022-08-21T12:47:00;2.03;;;1.30;;
39490;SDS011;25175;50.140;18.990;2022-08-21T12:50:05;3.28;;;1.38;;
39490;SDS011;25175;50.140;18.990;2022-08-21T12:53:12;2.67;;;1.70;;
39490;SDS011;25175;50.140;18.990;2022-08-21T12:56:31;4.05;;;1.90;;
39490;SDS011;25175;50.140;18.990;2022-08-21T12:59:36;2.13;;;1.60;;
39490;SDS011;25175;50.140;18.990;2022-08-21T13:02:42;3.72;;;1.88;;
39490;SDS011;25175;50.140;18.990;2022-08-21T13:05:48;3.53;;;2.03;;
39490;SDS011;25175;50.140;18.990;2022-08-21T13:08:53;4.10;;;2.25;;
39490;SDS011;25175;50.140;18.990;2022-08-21T13:12:02;3.00;;;2.50;;
39490;SDS011;25175;50.140;18.990;2022-08-21T13:15:09;3.30;;;2.30;;
39490;SDS011;25175;50.140;18.990;2022-08-21T13:18:19;3.47;;;2.20;;
39490;SDS011;25175;50.140;18.990;2022-08-21T13:21:26;3.58;;;2.00;;
39490;SDS011;25175;50.140;18.990;2022-08-21T13:24:32;3.38;;;2.03;;
39490;SDS011;25175;50.140;18.990;2022-08-21T13:27:40;3.63;;;2.47;;
39490;SDS011;25175;50.140;18.990;2022-08-21T13:30:44;3.30;;;2.50;;
39490;SDS011;25175;50.140;18.990;2022-08-21T13:33:47;5.60;;;2.97;;
39490;SDS011;25175;50.140;18.990;2022-08-21T13:36:51;5.43;;;3.10;;
39490;SDS011;25175;50.140;18.990;2022-08-21T13:39:56;4.88;;;3.13;;
39490;SDS011;25175;50.140;18.990;2022-08-21T13:43:00;5.07;;;3.00;;
39490;SDS011;25175;50.140;18.990;2022-08-21T13:46:06;3.90;;;2.60;;
39490;SDS011;25175;50.140;18.990;2022-08-21T13:49:13;4.05;;;2.45;;
39490;SDS011;25175;50.140;18.990;2022-08-21T13:52:19;4.90;;;2.60;;
39490;SDS011;25175;50.140;18.990;2022-08-21T13:55:23;4.20;;;3.08;;
39490;SDS011;25175;50.140;18.990;2022-08-21T13:58:29;4.88;;;3.15;;
39490;SDS011;25175;50.140;18.990;2022-08-21T14:01:33;5.00;;;3.15;;
39490;SDS011;25175;50.140;18.990;2022-08-21T14:04:42;4.70;;;3.15;;
39490;SDS011;25175;50.140;18.990;2022-08-21T14:07:52;4.20;;;3.03;;
39490;SDS011;25175;50.140;18.990;2022-08-21T14:11:09;8.13;;;3.05;;
39490;SDS011;25175;50.140;18.990;2022-08-21T14:14:18;5.32;;;2.75;;
39490;SDS011;25175;50.140;18.990;2022-08-21T14:17:27;4.30;;;2.70;;
39490;SDS011;25175;50.140;18.990;2022-08-21T14:20:33;4.05;;;2.58;;
39490;SDS011;25175;50.140;18.990;2022-08-21T14:23:36;4.05;;;2.65;;
39490;SDS011;25175;50.140;18.990;2022-08-21T14:26:43;5.30;;;2.55;;
39490;SDS011;25175;50.140;18.990;2022-08-21T14:29:56;4.32;;;2.47;;
39490;SDS011;25175;50.140;18.990;2022-08-21T14:33:01;4.63;;;2.28;;
39490;SDS011;25175;50.140;18.990;2022-08-21T14:36:04;3.47;;;2.33;;
39490;SDS011;25175;50.140;18.990;2022-08-21T14:39:07;4.95;;;2.60;;
39490;SDS011;25175;50.140;18.990;2022-08-21T14:42:10;3.58;;;2.17;;
39490;SDS011;25175;50.140;18.990;2022-08-21T14:45:15;3.70;;;2.17;;
39490;SDS011;25175;50.140;18.990;2022-08-21T14:48:19;2.85;;;1.75;;
39490;SDS011;25175;50.140;18.990;2022-08-21T14:51:21;4.93;;;1.80;;
39490;SDS011;25175;50.140;18.990;2022-08-21T14:54:23;5.38;;;2.42;;
39490;SDS011;25175;50.140;18.990;2022-08-21T14:57:26;5.32;;;2.38;;
39490;SDS011;25175;50.140;18.990;2022-08-21T15:00:33;7.25;;;2.95;;
39490;SDS011;25175;50.140;18.990;2022-08-21T15:03:35;4.63;;;3.00;;
39490;SDS011;25175;50.140;18.990;2022-08-21T15:06:38;5.55;;;3.38;;
39490;SDS011;25175;50.140;18.990;2022-08-21T15:09:41;6.18;;;4.30;;
39490;SDS011;25175;50.140;18.990;2022-08-21T15:12:43;7.30;;;3.95;;
39490;SDS011;25175;50.140;18.990;2022-08-21T15:15:47;6.95;;;4.38;;
39490;SDS011;25175;50.140;18.990;2022-08-21T15:18:50;6.05;;;3.88;;
39490;SDS011;25175;50.140;18.990;2022-08-21T15:21:52;6.47;;;4.07;;
39490;SDS011;25175;50.140;18.990;2022-08-21T15:24:55;6.25;;;4.05;;
39490;SDS011;25175;50.140;18.990;2022-08-21T15:27:58;6.75;;;3.72;;
39490;SDS011;25175;50.140;18.990;2022-08-21T15:31:02;7.63;;;3.97;;
39490;SDS011;25175;50.140;18.990;2022-08-21T15:34:04;5.57;;;3.75;;
39490;SDS011;25175;50.140;18.990;2022-08-21T15:37:06;7.85;;;3.47;;
39490;SDS011;25175;50.140;18.990;2022-08-21T15:40:10;7.43;;;3.75;;
39490;SDS011;25175;50.140;18.990;2022-08-21T15:43:17;6.95;;;4.25;;
39490;SDS011;25175;50.140;18.990;2022-08-21T15:46:25;8.68;;;4.50;;
39490;SDS011;25175;50.140;18.990;2022-08-21T15:49:27;8.27;;;4.35;;
39490;SDS011;25175;50.140;18.990;2022-08-21T15:52:29;8.68;;;4.43;;
39490;SDS011;25175;50.140;18.990;2022-08-21T15:55:32;8.40;;;4.78;;
39490;SDS011;25175;50.140;18.990;2022-08-21T15:58:34;11.40;;;4.78;;
39490;SDS011;25175;50.140;18.990;2022-08-21T16:01:39;7.20;;;4.32;;
39490;SDS011;25175;50.140;18.990;2022-08-21T16:04:41;9.40;;;4.45;;
39490;SDS011;25175;50.140;18.990;2022-08-21T16:07:44;7.82;;;4.65;;
39490;SDS011;25175;50.140;18.990;2022-08-21T16:10:47;8.48;;;5.25;;
39490;SDS011;25175;50.140;18.990;2022-08-21T16:13:50;12.27;;;5.13;;
39490;SDS011;25175;50.140;18.990;2022-08-21T16:16:54;7.70;;;4.53;;
39490;SDS011;25175;50.140;18.990;2022-08-21T16:19:57;9.52;;;5.38;;
39490;SDS011;25175;50.140;18.990;2022-08-21T16:23:01;11.32;;;5.57;;
39490;SDS011;25175;50.140;18.990;2022-08-21T16:26:04;9.05;;;5.00;;
39490;SDS011;25175;50.140;18.990;2022-08-21T16:29:08;9.38;;;5.32;;
39490;SDS011;25175;50.140;18.990;2022-08-21T16:32:11;10.00;;;5.07;;
39490;SDS011;25175;50.140;18.990;2022-08-21T16:35:15;7.80;;;5.13;;
39490;SDS011;25175;50.140;18.990;2022-08-21T16:38:19;7.32;;;4.90;;
39490;SDS011;25175;50.140;18.990;2022-08-21T16:41:22;8.23;;;4.35;;
39490;SDS011;25175;50.140;18.990;2022-08-21T16:44:27;7.60;;;4.45;;
39490;SDS011;25175;50.140;18.990;2022-08-21T16:47:31;8.48;;;3.88;;
39490;SDS011;25175;50.140;18.990;2022-08-21T16:50:33;7.30;;;3.83;;
39490;SDS011;25175;50.140;18.990;2022-08-21T16:53:35;7.35;;;4.05;;
39490;SDS011;25175;50.140;18.990;2022-08-21T16:56:38;7.85;;;3.70;;
39490;SDS011;25175;50.140;18.990;2022-08-21T16:59:41;6.05;;;3.30;;
39490;SDS011;25175;50.140;18.990;2022-08-21T17:02:46;8.60;;;3.83;;
39490;SDS011;25175;50.140;18.990;2022-08-21T17:05:50;7.30;;;3.25;;
39490;SDS011;25175;50.140;18.990;2022-08-21T17:08:52;5.57;;;3.22;;
39490;SDS011;25175;50.140;18.990;2022-08-21T17:11:55;3.97;;;2.13;;
39490;SDS011;25175;50.140;18.990;2022-08-21T17:15:00;2.47;;;1.98;;
39490;SDS011;25175;50.140;18.990;2022-08-21T17:18:10;2.45;;;1.65;;
39490;SDS011;25175;50.140;18.990;2022-08-21T17:21:15;2.78;;;1.88;;
39490;SDS011;25175;50.140;18.990;2022-08-21T17:24:19;3.47;;;2.00;;
39490;SDS011;25175;50.140;18.990;2022-08-21T17:27:22;4.57;;;2.00;;
39490;SDS011;25175;50.140;18.990;2022-08-21T17:30:27;3.13;;;1.98;;
39490;SDS011;25175;50.140;18.990;2022-08-21T17:33:33;4.57;;;2.22;;
39490;SDS011;25175;50.140;18.990;2022-08-21T17:36:39;3.72;;;2.13;;
39490;SDS011;25175;50.140;18.990;2022-08-21T17:39:41;4.22;;;2.50;;
39490;SDS011;25175;50.140;18.990;2022-08-21T17:42:44;6.55;;;3.58;;
39490;SDS011;25175;50.140;18.990;2022-08-21T17:45:47;3.53;;;1.48;;
39490;SDS011;25175;50.140;18.990;2022-08-21T17:48:51;2.42;;;1.40;;
39490;SDS011;25175;50.140;18.990;2022-08-21T17:51:54;3.00;;;1.60;;
39490;SDS011;25175;50.140;18.990;2022-08-21T17:55:04;2.78;;;1.30;;
39490;SDS011;25175;50.140;18.990;2022-08-21T17:58:14;2.38;;;1.70;;
39490;SDS011;25175;50.140;18.990;2022-08-21T18:01:37;4.30;;;1.40;;
39490;SDS011;25175;50.140;18.990;2022-08-21T18:04:58;3.92;;;1.30;;
39490;SDS011;25175;50.140;18.990;2022-08-21T18:08:10;2.72;;;1.52;;
39490;SDS011;25175;50.140;18.990;2022-08-21T18:11:29;3.05;;;1.83;;
39490;SDS011;25175;50.140;18.990;2022-08-21T18:14:57;2.60;;;1.90;;